sensor_id;sensor_type;location;lat;lon;timestamp;pressure;altitude;pressure_sealevel;temperature
66473;BMP280;70264;48.802;9.224;2023-07-20T00:00:55;98891.69;;;21.62
66473;BMP280;70264;48.802;9.224;2023-07-20T00:03:22;98890.31;;;21.55
66473;BMP280;70264;48.802;9.224;2023-07-20T00:05:50;98897.34;;;21.54
66473;BMP280;70264;48.802;9.224;2023-07-20T00:08:17;98900.41;;;21.51
66473;BMP280;70264;48.802;9.224;2023-07-20T00:10:48;98902.50;;;21.49
66473;BMP280;70264;48.802;9.224;2023-07-20T00:13:15;98892.88;;;21.50
66473;BMP280;70264;48.802;9.224;2023-07-20T00:15:44;98903.22;;;21.40
66473;BMP280;70264;48.802;9.224;2023-07-20T00:18:09;98903.41;;;21.33
66473;BMP280;70264;48.802;9.224;2023-07-20T00:20:35;98902.44;;;21.44
66473;BMP280;70264;48.802;9.224;2023-07-20T00:23:00;98901.25;;;21.25
66473;BMP280;70264;48.802;9.224;2023-07-20T00:25:25;98898.09;;;21.23
66473;BMP280;70264;48.802;9.224;2023-07-20T00:27:51;98895.66;;;21.11
66473;BMP280;70264;48.802;9.224;2023-07-20T00:30:16;98896.63;;;21.05
66473;BMP280;70264;48.802;9.224;2023-07-20T00:32:44;98893.25;;;21.05
66473;BMP280;70264;48.802;9.224;2023-07-20T00:35:12;98908.63;;;21.06
66473;BMP280;70264;48.802;9.224;2023-07-20T00:37:38;98900.97;;;21.00
66473;BMP280;70264;48.802;9.224;2023-07-20T00:40:04;98911.94;;;21.02
66473;BMP280;70264;48.802;9.224;2023-07-20T00:42:33;98898.13;;;20.96
66473;BMP280;70264;48.802;9.224;2023-07-20T00:45:00;98899.84;;;20.91
66473;BMP280;70264;48.802;9.224;2023-07-20T00:47:26;98907.13;;;20.89
66473;BMP280;70264;48.802;9.224;2023-07-20T00:49:54;98901.63;;;20.85
66473;BMP280;70264;48.802;9.224;2023-07-20T00:52:25;98903.38;;;20.79
66473;BMP280;70264;48.802;9.224;2023-07-20T00:54:53;98901.78;;;20.78
66473;BMP280;70264;48.802;9.224;2023-07-20T00:57:23;98902.28;;;20.75
66473;BMP280;70264;48.802;9.224;2023-07-20T00:59:49;98913.41;;;20.71
66473;BMP280;70264;48.802;9.224;2023-07-20T01:02:17;98909.22;;;20.70
66473;BMP280;70264;48.802;9.224;2023-07-20T01:04:44;98907.63;;;20.64
66473;BMP280;70264;48.802;9.224;2023-07-20T01:14:52;98897.38;;;20.57
66473;BMP280;70264;48.802;9.224;2023-07-20T01:17:17;98903.53;;;20.51
66473;BMP280;70264;48.802;9.224;2023-07-20T01:19:43;98899.88;;;20.47
66473;BMP280;70264;48.802;9.224;2023-07-20T01:25:27;98906.00;;;20.41
66473;BMP280;70264;48.802;9.224;2023-07-20T01:33:35;98904.06;;;20.31
66473;BMP280;70264;48.802;9.224;2023-07-20T01:36:03;98903.72;;;20.28
66473;BMP280;70264;48.802;9.224;2023-07-20T01:38:31;98905.25;;;20.24
66473;BMP280;70264;48.802;9.224;2023-07-20T01:40:59;98906.22;;;20.18
66473;BMP280;70264;48.802;9.224;2023-07-20T01:43:25;98897.88;;;20.16
66473;BMP280;70264;48.802;9.224;2023-07-20T01:45:52;98905.81;;;20.09
66473;BMP280;70264;48.802;9.224;2023-07-20T01:48:20;98897.72;;;20.06
66473;BMP280;70264;48.802;9.224;2023-07-20T01:50:48;98909.44;;;20.08
66473;BMP280;70264;48.802;9.224;2023-07-20T01:53:16;98902.59;;;20.02
66473;BMP280;70264;48.802;9.224;2023-07-20T01:55:43;98904.09;;;19.98
66473;BMP280;70264;48.802;9.224;2023-07-20T01:58:09;98902.56;;;19.97
66473;BMP280;70264;48.802;9.224;2023-07-20T02:00:37;98904.09;;;19.98
66473;BMP280;70264;48.802;9.224;2023-07-20T02:03:02;98907.41;;;19.94
66473;BMP280;70264;48.802;9.224;2023-07-20T02:05:27;98903.69;;;19.90
66473;BMP280;70264;48.802;9.224;2023-07-20T02:07:53;98909.59;;;19.85
66473;BMP280;70264;48.802;9.224;2023-07-20T02:10:20;98909.78;;;19.78
66473;BMP280;70264;48.802;9.224;2023-07-20T02:12:46;98902.50;;;19.80
66473;BMP280;70264;48.802;9.224;2023-07-20T02:15:14;98903.50;;;19.74
66473;BMP280;70264;48.802;9.224;2023-07-20T02:17:44;98902.38;;;19.70
66473;BMP280;70264;48.802;9.224;2023-07-20T02:20:09;98907.47;;;19.65
66473;BMP280;70264;48.802;9.224;2023-07-20T02:22:36;98906.38;;;19.61
66473;BMP280;70264;48.802;9.224;2023-07-20T02:25:02;98907.94;;;19.62
66473;BMP280;70264;48.802;9.224;2023-07-20T02:27:28;98908.50;;;19.64
66473;BMP280;70264;48.802;9.224;2023-07-20T02:29:55;98910.44;;;19.57
66473;BMP280;70264;48.802;9.224;2023-07-20T02:32:23;98907.56;;;19.54
66473;BMP280;70264;48.802;9.224;2023-07-20T02:34:53;98905.19;;;19.52
66473;BMP280;70264;48.802;9.224;2023-07-20T02:37:21;98901.97;;;19.45
66473;BMP280;70264;48.802;9.224;2023-07-20T02:39:46;98901.72;;;19.47
66473;BMP280;70264;48.802;9.224;2023-07-20T02:42:14;98909.28;;;19.48
66473;BMP280;70264;48.802;9.224;2023-07-20T02:44:41;98914.44;;;19.48
66473;BMP280;70264;48.802;9.224;2023-07-20T02:47:07;98914.25;;;19.38
66473;BMP280;70264;48.802;9.224;2023-07-20T02:49:32;98914.25;;;19.38
66473;BMP280;70264;48.802;9.224;2023-07-20T02:51:57;98919.34;;;19.33
66473;BMP280;70264;48.802;9.224;2023-07-20T02:54:23;98920.91;;;19.34
66473;BMP280;70264;48.802;9.224;2023-07-20T02:56:48;98925.03;;;19.30
66473;BMP280;70264;48.802;9.224;2023-07-20T02:59:13;98921.31;;;19.26
66473;BMP280;70264;48.802;9.224;2023-07-20T03:01:39;98921.69;;;19.18
66473;BMP280;70264;48.802;9.224;2023-07-20T03:04:04;98927.06;;;19.16
66473;BMP280;70264;48.802;9.224;2023-07-20T03:06:29;98931.78;;;19.19
66473;BMP280;70264;48.802;9.224;2023-07-20T03:08:55;98930.47;;;19.17
66473;BMP280;70264;48.802;9.224;2023-07-20T03:11:21;98925.97;;;19.12
66473;BMP280;70264;48.802;9.224;2023-07-20T03:13:48;98938.72;;;19.02
66473;BMP280;70264;48.802;9.224;2023-07-20T03:16:19;98942.13;;;19.03
66473;BMP280;70264;48.802;9.224;2023-07-20T03:18:44;98933.22;;;18.99
66473;BMP280;70264;48.802;9.224;2023-07-20T03:21:12;98944.16;;;19.01
66473;BMP280;70264;48.802;9.224;2023-07-20T03:23:38;98935.81;;;18.99
66473;BMP280;70264;48.802;9.224;2023-07-20T03:26:04;98940.00;;;19.00
66473;BMP280;70264;48.802;9.224;2023-07-20T03:28:29;98940.22;;;18.98
66473;BMP280;70264;48.802;9.224;2023-07-20T03:30:58;98938.75;;;18.91
66473;BMP280;70264;48.802;9.224;2023-07-20T03:33:25;98939.53;;;18.91
66473;BMP280;70264;48.802;9.224;2023-07-20T03:35:51;98943.25;;;18.95
66473;BMP280;70264;48.802;9.224;2023-07-20T03:38:16;98938.75;;;18.91
66473;BMP280;70264;48.802;9.224;2023-07-20T03:40:57;98940.94;;;18.82
66473;BMP280;70264;48.802;9.224;2023-07-20T03:43:27;98943.53;;;18.82
66473;BMP280;70264;48.802;9.224;2023-07-20T03:45:54;98936.44;;;18.77
66473;BMP280;70264;48.802;9.224;2023-07-20T03:48:22;98944.31;;;18.82
66473;BMP280;70264;48.802;9.224;2023-07-20T03:50:52;98946.44;;;18.74
66473;BMP280;70264;48.802;9.224;2023-07-20T03:53:20;98947.91;;;18.70
66473;BMP280;70264;48.802;9.224;2023-07-20T03:58:13;98944.88;;;18.73
66473;BMP280;70264;48.802;9.224;2023-07-20T04:00:39;98946.44;;;18.74
66473;BMP280;70264;48.802;9.224;2023-07-20T04:03:04;98954.31;;;18.79
66473;BMP280;70264;48.802;9.224;2023-07-20T04:05:32;98948.34;;;18.78
66473;BMP280;70264;48.802;9.224;2023-07-20T04:08:01;98950.38;;;18.76
66473;BMP280;70264;48.802;9.224;2023-07-20T04:10:26;98951.41;;;18.75
66473;BMP280;70264;48.802;9.224;2023-07-20T04:12:51;98946.44;;;18.74
66473;BMP280;70264;48.802;9.224;2023-07-20T04:15:16;98945.53;;;18.80
66473;BMP280;70264;48.802;9.224;2023-07-20T04:17:42;98962.22;;;18.84
66473;BMP280;70264;48.802;9.224;2023-07-20T04:20:10;98955.31;;;18.90
66473;BMP280;70264;48.802;9.224;2023-07-20T04:22:36;98962.63;;;18.93
66473;BMP280;70264;48.802;9.224;2023-07-20T04:25:03;98965.44;;;19.03
66473;BMP280;70264;48.802;9.224;2023-07-20T04:27:28;98956.44;;;19.05
66473;BMP280;70264;48.802;9.224;2023-07-20T04:29:54;98959.38;;;19.09
66473;BMP280;70264;48.802;9.224;2023-07-20T04:32:19;98960.66;;;19.11
66473;BMP280;70264;48.802;9.224;2023-07-20T04:34:46;98962.03;;;19.14
66473;BMP280;70264;48.802;9.224;2023-07-20T04:37:14;98957.28;;;19.22
66473;BMP280;70264;48.802;9.224;2023-07-20T04:39:41;98958.34;;;19.38
66473;BMP280;70264;48.802;9.224;2023-07-20T04:42:09;98961.78;;;19.27
66473;BMP280;70264;48.802;9.224;2023-07-20T04:44:35;98959.09;;;19.22
66473;BMP280;70264;48.802;9.224;2023-07-20T04:47:00;98955.13;;;19.31
66473;BMP280;70264;48.802;9.224;2023-07-20T04:49:25;98967.13;;;19.37
66473;BMP280;70264;48.802;9.224;2023-07-20T04:51:53;98957.09;;;19.41
66473;BMP280;70264;48.802;9.224;2023-07-20T04:54:19;98956.41;;;19.45
66473;BMP280;70264;48.802;9.224;2023-07-20T04:56:50;98953.47;;;19.42
66473;BMP280;70264;48.802;9.224;2023-07-20T04:59:15;98959.00;;;19.45
66473;BMP280;70264;48.802;9.224;2023-07-20T05:01:47;98953.69;;;19.52
66473;BMP280;70264;48.802;9.224;2023-07-20T05:04:12;98952.66;;;19.53
66473;BMP280;70264;48.802;9.224;2023-07-20T05:06:40;98958.34;;;19.66
66473;BMP280;70264;48.802;9.224;2023-07-20T05:09:05;98963.63;;;19.71
66473;BMP280;70264;48.802;9.224;2023-07-20T05:11:33;98963.69;;;19.76
66473;BMP280;70264;48.802;9.224;2023-07-20T05:13:58;98961.09;;;19.76
66473;BMP280;70264;48.802;9.224;2023-07-20T05:16:23;98960.34;;;19.93
66473;BMP280;70264;48.802;9.224;2023-07-20T05:18:48;98957.44;;;20.06
66473;BMP280;70264;48.802;9.224;2023-07-20T05:21:18;98958.75;;;20.08
66473;BMP280;70264;48.802;9.224;2023-07-20T05:23:44;98953.19;;;20.16
66473;BMP280;70264;48.802;9.224;2023-07-20T05:26:12;98955.31;;;20.19
66473;BMP280;70264;48.802;9.224;2023-07-20T05:28:37;98955.25;;;20.14
66473;BMP280;70264;48.802;9.224;2023-07-20T05:31:03;98959.75;;;20.19
66473;BMP280;70264;48.802;9.224;2023-07-20T05:33:30;98954.66;;;20.29
66473;BMP280;70264;48.802;9.224;2023-07-20T05:35:56;98956.88;;;20.20
66473;BMP280;70264;48.802;9.224;2023-07-20T05:38:21;98948.38;;;20.25
66473;BMP280;70264;48.802;9.224;2023-07-20T05:40:46;98948.06;;;20.21
66473;BMP280;70264;48.802;9.224;2023-07-20T05:43:13;98956.78;;;20.32
66473;BMP280;70264;48.802;9.224;2023-07-20T05:45:42;98958.28;;;20.45
66473;BMP280;70264;48.802;9.224;2023-07-20T05:48:08;98963.63;;;20.38
66473;BMP280;70264;48.802;9.224;2023-07-20T05:50:37;98951.25;;;20.45
66473;BMP280;70264;48.802;9.224;2023-07-20T05:53:02;98952.91;;;20.51
66473;BMP280;70264;48.802;9.224;2023-07-20T05:55:27;98959.69;;;20.52
66473;BMP280;70264;48.802;9.224;2023-07-20T05:57:55;98954.47;;;20.52
66473;BMP280;70264;48.802;9.224;2023-07-20T06:00:21;98958.78;;;20.63
66473;BMP280;70264;48.802;9.224;2023-07-20T06:02:52;98956.34;;;20.73
66473;BMP280;70264;48.802;9.224;2023-07-20T06:05:21;98958.81;;;20.85
66473;BMP280;70264;48.802;9.224;2023-07-20T06:07:47;98955.84;;;20.76
66473;BMP280;70264;48.802;9.224;2023-07-20T06:10:12;98949.44;;;20.84
66473;BMP280;70264;48.802;9.224;2023-07-20T06:12:37;98961.06;;;21.03
66473;BMP280;70264;48.802;9.224;2023-07-20T06:15:04;98966.19;;;20.93
66473;BMP280;70264;48.802;9.224;2023-07-20T06:17:32;98966.13;;;20.88
66473;BMP280;70264;48.802;9.224;2023-07-20T06:19:58;98958.31;;;21.10
66473;BMP280;70264;48.802;9.224;2023-07-20T06:22:25;98962.66;;;21.26
66473;BMP280;70264;48.802;9.224;2023-07-20T06:24:53;98960.56;;;21.28
66473;BMP280;70264;48.802;9.224;2023-07-20T06:27:18;98966.38;;;21.35
66473;BMP280;70264;48.802;9.224;2023-07-20T06:29:46;98956.28;;;21.39
66473;BMP280;70264;48.802;9.224;2023-07-20T06:32:13;98959.19;;;21.42
66473;BMP280;70264;48.802;9.224;2023-07-20T06:34:39;98957.91;;;21.23
66473;BMP280;70264;48.802;9.224;2023-07-20T06:37:08;98958.97;;;21.22
66473;BMP280;70264;48.802;9.224;2023-07-20T06:39:34;98957.59;;;21.14
66473;BMP280;70264;48.802;9.224;2023-07-20T06:42:00;98959.06;;;21.32
66473;BMP280;70264;48.802;9.224;2023-07-20T06:44:28;98956.06;;;21.45
66473;BMP280;70264;48.802;9.224;2023-07-20T06:46:54;98954.78;;;21.48
66473;BMP280;70264;48.802;9.224;2023-07-20T06:49:26;98956.84;;;21.46
66473;BMP280;70264;48.802;9.224;2023-07-20T06:51:51;98967.22;;;21.41
66473;BMP280;70264;48.802;9.224;2023-07-20T06:54:17;98952.22;;;21.53
66473;BMP280;70264;48.802;9.224;2023-07-20T06:56:43;98959.09;;;21.64
66473;BMP280;70264;48.802;9.224;2023-07-20T06:59:08;98956.53;;;21.37
66473;BMP280;70264;48.802;9.224;2023-07-20T07:01:33;98948.78;;;21.47
66473;BMP280;70264;48.802;9.224;2023-07-20T07:04:01;98950.06;;;21.45
66473;BMP280;70264;48.802;9.224;2023-07-20T07:06:28;98950.34;;;21.43
66473;BMP280;70264;48.802;9.224;2023-07-20T07:08:54;98953.47;;;21.45
66473;BMP280;70264;48.802;9.224;2023-07-20T07:11:22;98959.84;;;21.32
66473;BMP280;70264;48.802;9.224;2023-07-20T07:13:48;98958.91;;;21.39
66473;BMP280;70264;48.802;9.224;2023-07-20T07:16:16;98943.06;;;21.45
66473;BMP280;70264;48.802;9.224;2023-07-20T07:18:49;98945.31;;;21.63
66473;BMP280;70264;48.802;9.224;2023-07-20T07:21:15;98945.06;;;21.65
66473;BMP280;70264;48.802;9.224;2023-07-20T07:23:43;98945.75;;;21.82
66473;BMP280;70264;48.802;9.224;2023-07-20T07:26:11;98938.75;;;21.88
66473;BMP280;70264;48.802;9.224;2023-07-20T07:28:39;98946.47;;;21.77
66473;BMP280;70264;48.802;9.224;2023-07-20T07:31:07;98947.59;;;21.92
66473;BMP280;70264;48.802;9.224;2023-07-20T07:33:33;98957.28;;;21.96
66473;BMP280;70264;48.802;9.224;2023-07-20T07:36:00;98945.34;;;21.68
66473;BMP280;70264;48.802;9.224;2023-07-20T07:38:28;98945.19;;;21.80
66473;BMP280;70264;48.802;9.224;2023-07-20T07:40:58;98942.41;;;22.28
66473;BMP280;70264;48.802;9.224;2023-07-20T07:43:26;98942.88;;;22.25
66473;BMP280;70264;48.802;9.224;2023-07-20T07:45:55;98943.94;;;22.29
66473;BMP280;70264;48.802;9.224;2023-07-20T07:48:21;98938.53;;;22.36
66473;BMP280;70264;48.802;9.224;2023-07-20T07:50:47;98940.53;;;22.24
66473;BMP280;70264;48.802;9.224;2023-07-20T07:53:12;98950.38;;;22.17
66473;BMP280;70264;48.802;9.224;2023-07-20T07:55:37;98944.94;;;22.23
66473;BMP280;70264;48.802;9.224;2023-07-20T07:58:03;98937.09;;;22.13
66473;BMP280;70264;48.802;9.224;2023-07-20T08:00:28;98938.78;;;22.34
66473;BMP280;70264;48.802;9.224;2023-07-20T08:02:56;98939.16;;;22.63
66473;BMP280;70264;48.802;9.224;2023-07-20T08:05:24;98936.56;;;22.68
66473;BMP280;70264;48.802;9.224;2023-07-20T08:07:49;98938.22;;;22.89
66473;BMP280;70264;48.802;9.224;2023-07-20T08:10:15;98943.44;;;22.84
66473;BMP280;70264;48.802;9.224;2023-07-20T08:12:42;98937.16;;;22.90
66473;BMP280;70264;48.802;9.224;2023-07-20T08:15:12;98943.34;;;22.69
66473;BMP280;70264;48.802;9.224;2023-07-20T08:17:41;98929.91;;;23.03
66473;BMP280;70264;48.802;9.224;2023-07-20T08:20:12;98929.41;;;23.36
66473;BMP280;70264;48.802;9.224;2023-07-20T08:22:37;98938.00;;;23.06
66473;BMP280;70264;48.802;9.224;2023-07-20T08:25:07;98935.16;;;23.23
66473;BMP280;70264;48.802;9.224;2023-07-20T08:27:32;98928.31;;;23.02
66473;BMP280;70264;48.802;9.224;2023-07-20T08:29:57;98928.06;;;23.13
66473;BMP280;70264;48.802;9.224;2023-07-20T08:32:23;98936.69;;;23.04
66473;BMP280;70264;48.802;9.224;2023-07-20T08:34:48;98928.81;;;22.93
66473;BMP280;70264;48.802;9.224;2023-07-20T08:37:13;98933.47;;;22.86
66473;BMP280;70264;48.802;9.224;2023-07-20T08:39:39;98936.50;;;22.53
66473;BMP280;70264;48.802;9.224;2023-07-20T08:42:05;98939.66;;;22.60
66473;BMP280;70264;48.802;9.224;2023-07-20T08:44:35;98936.63;;;22.83
66473;BMP280;70264;48.802;9.224;2023-07-20T08:47:04;98944.47;;;22.93
66473;BMP280;70264;48.802;9.224;2023-07-20T08:49:31;98941.13;;;23.13
66473;BMP280;70264;48.802;9.224;2023-07-20T08:51:59;98931.25;;;23.56
66473;BMP280;70264;48.802;9.224;2023-07-20T08:54:30;98938.03;;;23.47
66473;BMP280;70264;48.802;9.224;2023-07-20T08:56:58;98923.41;;;23.35
66473;BMP280;70264;48.802;9.224;2023-07-20T08:59:27;98925.50;;;23.59
66473;BMP280;70264;48.802;9.224;2023-07-20T09:01:55;98922.13;;;23.63
66473;BMP280;70264;48.802;9.224;2023-07-20T09:04:23;98924.41;;;23.95
66473;BMP280;70264;48.802;9.224;2023-07-20T09:06:51;98918.13;;;24.01
66473;BMP280;70264;48.802;9.224;2023-07-20T09:09:17;98915.81;;;23.79
66473;BMP280;70264;48.802;9.224;2023-07-20T09:11:48;98918.41;;;23.89
66473;BMP280;70264;48.802;9.224;2023-07-20T09:14:14;98930.97;;;23.87
66473;BMP280;70264;48.802;9.224;2023-07-20T09:19:15;98920.44;;;24.13
66473;BMP280;70264;48.802;9.224;2023-07-20T09:21:44;98920.00;;;23.75
66473;BMP280;70264;48.802;9.224;2023-07-20T09:24:09;98918.91;;;23.96
66473;BMP280;70264;48.802;9.224;2023-07-20T09:26:41;98922.53;;;24.16
66473;BMP280;70264;48.802;9.224;2023-07-20T09:29:07;98924.69;;;23.83
66473;BMP280;70264;48.802;9.224;2023-07-20T09:31:34;98909.72;;;24.04
66473;BMP280;70264;48.802;9.224;2023-07-20T09:34:02;98918.44;;;23.74
66473;BMP280;70264;48.802;9.224;2023-07-20T09:36:28;98916.25;;;24.12
66473;BMP280;70264;48.802;9.224;2023-07-20T09:38:54;98931.19;;;23.86
66473;BMP280;70264;48.802;9.224;2023-07-20T09:41:21;98917.09;;;23.82
66473;BMP280;70264;48.802;9.224;2023-07-20T09:43:46;98921.06;;;23.69
66473;BMP280;70264;48.802;9.224;2023-07-20T09:46:12;98913.22;;;23.49
66473;BMP280;70264;48.802;9.224;2023-07-20T09:48:38;98915.06;;;23.59
66473;BMP280;70264;48.802;9.224;2023-07-20T09:51:07;98911.13;;;23.76
66473;BMP280;70264;48.802;9.224;2023-07-20T09:53:35;98909.53;;;23.95
66473;BMP280;70264;48.802;9.224;2023-07-20T09:56:03;98910.91;;;24.42
66473;BMP280;70264;48.802;9.224;2023-07-20T09:58:31;98896.44;;;24.65
66473;BMP280;70264;48.802;9.224;2023-07-20T10:01:01;98897.59;;;24.48
66473;BMP280;70264;48.802;9.224;2023-07-20T10:03:31;98909.91;;;24.33
66473;BMP280;70264;48.802;9.224;2023-07-20T10:06:03;98906.31;;;24.19
66473;BMP280;70264;48.802;9.224;2023-07-20T10:08:32;98906.69;;;23.77
66473;BMP280;70264;48.802;9.224;2023-07-20T10:11:00;98908.50;;;23.81
66473;BMP280;70264;48.802;9.224;2023-07-20T10:13:31;98903.25;;;23.86
66473;BMP280;70264;48.802;9.224;2023-07-20T10:16:12;98901.97;;;23.79
66473;BMP280;70264;48.802;9.224;2023-07-20T10:18:50;98897.34;;;24.35
66473;BMP280;70264;48.802;9.224;2023-07-20T10:21:19;98888.97;;;24.87
66473;BMP280;70264;48.802;9.224;2023-07-20T10:23:48;98880.53;;;24.95
66473;BMP280;70264;48.802;9.224;2023-07-20T10:26:13;98885.56;;;24.47
66473;BMP280;70264;48.802;9.224;2023-07-20T10:28:39;98893.81;;;24.65
66473;BMP280;70264;48.802;9.224;2023-07-20T10:31:07;98879.81;;;24.89
66473;BMP280;70264;48.802;9.224;2023-07-20T10:33:33;98881.78;;;25.02
66473;BMP280;70264;48.802;9.224;2023-07-20T10:36:04;98880.44;;;25.05
66473;BMP280;70264;48.802;9.224;2023-07-20T10:38:42;98879.31;;;24.82
66473;BMP280;70264;48.802;9.224;2023-07-20T10:43:58;98867.63;;;25.37
66473;BMP280;70264;48.802;9.224;2023-07-20T10:46:34;98872.34;;;24.73
66473;BMP280;70264;48.802;9.224;2023-07-20T10:49:08;98869.78;;;24.58
66473;BMP280;70264;48.802;9.224;2023-07-20T10:51:48;98866.00;;;24.74
66473;BMP280;70264;48.802;9.224;2023-07-20T10:56:42;98854.13;;;25.49
66473;BMP280;70264;48.802;9.224;2023-07-20T10:59:36;98863.53;;;25.26
66473;BMP280;70264;48.802;9.224;2023-07-20T11:02:09;98855.31;;;25.38
66473;BMP280;70264;48.802;9.224;2023-07-20T11:04:40;98859.81;;;25.61
66473;BMP280;70264;48.802;9.224;2023-07-20T11:07:06;98856.53;;;25.45
66473;BMP280;70264;48.802;9.224;2023-07-20T11:09:38;98851.72;;;25.57
66473;BMP280;70264;48.802;9.224;2023-07-20T11:14:56;98861.41;;;25.81
66473;BMP280;70264;48.802;9.224;2023-07-20T11:17:29;98854.59;;;25.56
66473;BMP280;70264;48.802;9.224;2023-07-20T11:19:56;98853.25;;;25.35
66473;BMP280;70264;48.802;9.224;2023-07-20T11:22:24;98848.44;;;26.13
66473;BMP280;70264;48.802;9.224;2023-07-20T11:24:49;98845.31;;;26.48
66473;BMP280;70264;48.802;9.224;2023-07-20T11:27:19;98849.44;;;26.36
66473;BMP280;70264;48.802;9.224;2023-07-20T11:29:47;98848.84;;;26.76
66473;BMP280;70264;48.802;9.224;2023-07-20T11:32:20;98837.78;;;26.42
66473;BMP280;70264;48.802;9.224;2023-07-20T11:34:48;98838.41;;;27.03
66473;BMP280;70264;48.802;9.224;2023-07-20T11:37:14;98836.84;;;27.02
66473;BMP280;70264;48.802;9.224;2023-07-20T11:39:39;98845.53;;;26.52
66473;BMP280;70264;48.802;9.224;2023-07-20T11:42:05;98842.63;;;26.35
66473;BMP280;70264;48.802;9.224;2023-07-20T11:44:32;98839.09;;;26.07
66473;BMP280;70264;48.802;9.224;2023-07-20T11:47:11;98830.25;;;25.79
66473;BMP280;70264;48.802;9.224;2023-07-20T11:49:44;98848.28;;;26.04
66473;BMP280;70264;48.802;9.224;2023-07-20T11:52:15;98838.31;;;25.83
66473;BMP280;70264;48.802;9.224;2023-07-20T11:54:42;98848.78;;;26.06
66473;BMP280;70264;48.802;9.224;2023-07-20T11:57:07;98824.06;;;26.50
66473;BMP280;70264;48.802;9.224;2023-07-20T11:59:35;98825.47;;;26.42
66473;BMP280;70264;48.802;9.224;2023-07-20T12:02:02;98822.88;;;26.74
66473;BMP280;70264;48.802;9.224;2023-07-20T12:04:28;98824.75;;;26.55
66473;BMP280;70264;48.802;9.224;2023-07-20T12:06:54;98832.00;;;26.77
66473;BMP280;70264;48.802;9.224;2023-07-20T12:09:20;98810.34;;;27.31
66473;BMP280;70264;48.802;9.224;2023-07-20T12:11:49;98806.03;;;27.76
66473;BMP280;70264;48.802;9.224;2023-07-20T12:14:15;98798.19;;;27.98
66473;BMP280;70264;48.802;9.224;2023-07-20T12:16:43;98803.00;;;27.69
66473;BMP280;70264;48.802;9.224;2023-07-20T12:19:11;98792.56;;;28.13
66473;BMP280;70264;48.802;9.224;2023-07-20T12:21:40;98795.13;;;27.69
66473;BMP280;70264;48.802;9.224;2023-07-20T12:24:08;98804.22;;;27.85
66473;BMP280;70264;48.802;9.224;2023-07-20T12:26:37;98795.91;;;27.15
66473;BMP280;70264;48.802;9.224;2023-07-20T12:29:05;98797.69;;;27.19
66473;BMP280;70264;48.802;9.224;2023-07-20T12:31:36;98793.34;;;27.64
66473;BMP280;70264;48.802;9.224;2023-07-20T12:34:01;98792.53;;;27.42
66473;BMP280;70264;48.802;9.224;2023-07-20T12:36:27;98788.47;;;26.76
66473;BMP280;70264;48.802;9.224;2023-07-20T12:38:52;98787.63;;;26.94
66473;BMP280;70264;48.802;9.224;2023-07-20T12:41:17;98776.50;;;27.29
66473;BMP280;70264;48.802;9.224;2023-07-20T12:43:44;98780.94;;;27.15
66473;BMP280;70264;48.802;9.224;2023-07-20T12:46:10;98781.72;;;26.38
66473;BMP280;70264;48.802;9.224;2023-07-20T12:48:37;98771.56;;;26.96
66473;BMP280;70264;48.802;9.224;2023-07-20T12:51:03;98776.56;;;27.38
66473;BMP280;70264;48.802;9.224;2023-07-20T12:53:31;98763.78;;;27.59
66473;BMP280;70264;48.802;9.224;2023-07-20T12:55:59;98769.94;;;27.90
66473;BMP280;70264;48.802;9.224;2023-07-20T12:58:25;98765.41;;;28.26
66473;BMP280;70264;48.802;9.224;2023-07-20T13:00:57;98760.19;;;28.35
66473;BMP280;70264;48.802;9.224;2023-07-20T13:03:23;98757.38;;;28.53
66473;BMP280;70264;48.802;9.224;2023-07-20T13:05:48;98766.34;;;27.86
66473;BMP280;70264;48.802;9.224;2023-07-20T13:08:15;98763.91;;;27.13
66473;BMP280;70264;48.802;9.224;2023-07-20T13:10:43;98751.59;;;27.76
66473;BMP280;70264;48.802;9.224;2023-07-20T13:13:12;98748.00;;;27.59
66473;BMP280;70264;48.802;9.224;2023-07-20T13:15:44;98747.03;;;28.88
66473;BMP280;70264;48.802;9.224;2023-07-20T13:18:10;98736.31;;;29.58
66473;BMP280;70264;48.802;9.224;2023-07-20T13:20:37;98745.03;;;29.02
66473;BMP280;70264;48.802;9.224;2023-07-20T13:23:03;98745.75;;;28.24
66473;BMP280;70264;48.802;9.224;2023-07-20T13:25:29;98741.19;;;29.08
66473;BMP280;70264;48.802;9.224;2023-07-20T13:27:55;98740.66;;;28.97
66473;BMP280;70264;48.802;9.224;2023-07-20T13:30:20;98743.50;;;29.09
66473;BMP280;70264;48.802;9.224;2023-07-20T13:32:46;98741.69;;;27.95
66473;BMP280;70264;48.802;9.224;2023-07-20T13:35:12;98742.22;;;28.28
66473;BMP280;70264;48.802;9.224;2023-07-20T13:37:40;98735.31;;;29.11
66473;BMP280;70264;48.802;9.224;2023-07-20T13:40:10;98739.09;;;28.26
66473;BMP280;70264;48.802;9.224;2023-07-20T13:42:38;98741.38;;;27.75
66473;BMP280;70264;48.802;9.224;2023-07-20T13:45:06;98743.75;;;27.49
66473;BMP280;70264;48.802;9.224;2023-07-20T13:47:33;98737.81;;;27.93
66473;BMP280;70264;48.802;9.224;2023-07-20T13:50:01;98726.13;;;28.91
66473;BMP280;70264;48.802;9.224;2023-07-20T13:52:28;98726.00;;;29.22
66473;BMP280;70264;48.802;9.224;2023-07-20T13:54:54;98724.00;;;29.28
66473;BMP280;70264;48.802;9.224;2023-07-20T13:57:19;98724.00;;;29.28
66473;BMP280;70264;48.802;9.224;2023-07-20T13:59:49;98712.25;;;30.40
66473;BMP280;70264;48.802;9.224;2023-07-20T14:02:19;98696.13;;;30.71
66473;BMP280;70264;48.802;9.224;2023-07-20T14:04:44;98712.31;;;30.61
66473;BMP280;70264;48.802;9.224;2023-07-20T14:07:12;98708.97;;;29.45
66473;BMP280;70264;48.802;9.224;2023-07-20T14:09:38;98701.53;;;29.47
66473;BMP280;70264;48.802;9.224;2023-07-20T14:12:04;98705.88;;;29.86
66473;BMP280;70264;48.802;9.224;2023-07-20T14:14:34;98704.31;;;29.76
66473;BMP280;70264;48.802;9.224;2023-07-20T14:16:59;98700.16;;;29.50
66473;BMP280;70264;48.802;9.224;2023-07-20T14:19:25;98702.69;;;30.27
66473;BMP280;70264;48.802;9.224;2023-07-20T14:21:50;98692.41;;;30.72
66473;BMP280;70264;48.802;9.224;2023-07-20T14:24:15;98696.72;;;30.97
66473;BMP280;70264;48.802;9.224;2023-07-20T14:26:48;98693.44;;;30.79
66473;BMP280;70264;48.802;9.224;2023-07-20T14:29:14;98702.94;;;31.42
66473;BMP280;70264;48.802;9.224;2023-07-20T14:31:39;98685.78;;;31.48
66473;BMP280;70264;48.802;9.224;2023-07-20T14:34:04;98686.91;;;32.40
66473;BMP280;70264;48.802;9.224;2023-07-20T14:36:30;98686.88;;;33.16
66473;BMP280;70264;48.802;9.224;2023-07-20T14:38:55;98688.66;;;32.48